Venango Regional Airport Franklin US
ICAO: KFKL
IATA: FKL
Category: Medium
Scheduled Services: No

Elevation: 1540 ft
TransAlt. 18000 ft.

Airport Communications:
YOUNGSTOWN APP/DEP:133.95
AWOS 3:118.175
CLNC DEL:126.25
ALTOONA RDO:109.6
CTAF/UNICOM:122.7

KFKL Zoom In..

Runways:

(A) RW 03 length 5200 ft width 150 ft
---- / hdg 27

(B) RW 12 length 3593 ft width 100 ft
---- / hdg 116

(C) RW 21 length 5200 ft width 150 ft
ILS 110.50 / hdg 207

(D) RW 30 length 3593 ft width 100 ft
---- / hdg 296

Location; KFKL
Day. 24 / Time. 12.56 Zulu
* Altimeter: 30.26
* Temperature: 16° c. 60.8°f.
* Wind from: 030° Speed 04 kn.
Dewpoint: 11° c.
Visibility: 10 Statute Miles.
Clouds: Clear (automated report).

KFKL 241256Z AUTO 03004KT 10SM CLR 16/11 A3026 RMK AO2 SLP245 T01610106


Wind From 030°
Speed 04 kn.

 
 
jpsmedia.com for Web Design SOUNDCLOUD worldairports.se 2018   terms of use